sensor_id;sensor_type;location;lat;lon;timestamp;pressure;altitude;pressure_sealevel;temperature;humidity
65716;BME280;63484;52.054;8.518;2023-06-14T00:04:30;100579.50;;;16.81;52.21
65716;BME280;63484;52.054;8.518;2023-06-14T00:09:32;100580.84;;;16.66;54.16
65716;BME280;63484;52.054;8.518;2023-06-14T00:14:37;100594.97;;;16.45;56.16
65716;BME280;63484;52.054;8.518;2023-06-14T00:19:39;100603.09;;;16.23;57.13
65716;BME280;63484;52.054;8.518;2023-06-14T00:24:43;100597.78;;;16.03;57.54
65716;BME280;63484;52.054;8.518;2023-06-14T00:29:46;100594.16;;;15.83;58.57
65716;BME280;63484;52.054;8.518;2023-06-14T00:34:50;100606.28;;;15.65;59.93
65716;BME280;63484;52.054;8.518;2023-06-14T00:39:51;100612.84;;;15.50;61.22
65716;BME280;63484;52.054;8.518;2023-06-14T00:44:55;100619.59;;;15.32;62.57
65716;BME280;63484;52.054;8.518;2023-06-14T00:49:57;100619.75;;;15.19;62.69
65716;BME280;63484;52.054;8.518;2023-06-14T00:54:59;100620.38;;;15.12;62.92
65716;BME280;63484;52.054;8.518;2023-06-14T01:00:02;100620.28;;;15.02;63.54
65716;BME280;63484;52.054;8.518;2023-06-14T01:05:08;100617.75;;;15.01;63.59
65716;BME280;63484;52.054;8.518;2023-06-14T01:10:23;100618.22;;;14.95;64.76
65716;BME280;63484;52.054;8.518;2023-06-14T01:15:35;100617.28;;;14.74;65.04
65716;BME280;63484;52.054;8.518;2023-06-14T01:20:40;100618.50;;;14.59;66.56
65716;BME280;63484;52.054;8.518;2023-06-14T01:25:43;100624.72;;;14.47;67.25
65716;BME280;63484;52.054;8.518;2023-06-14T01:30:53;100622.06;;;14.36;67.40
65716;BME280;63484;52.054;8.518;2023-06-14T01:35:56;100633.78;;;14.21;68.72
65716;BME280;63484;52.054;8.518;2023-06-14T01:40:59;100632.16;;;14.07;68.87
65716;BME280;63484;52.054;8.518;2023-06-14T01:46:03;100639.38;;;13.94;70.59
65716;BME280;63484;52.054;8.518;2023-06-14T01:51:08;100645.69;;;13.80;71.62
65716;BME280;63484;52.054;8.518;2023-06-14T01:56:11;100643.09;;;13.68;71.33
65716;BME280;63484;52.054;8.518;2023-06-14T02:01:12;100653.72;;;13.55;72.18
65716;BME280;63484;52.054;8.518;2023-06-14T02:06:19;100649.41;;;13.54;72.73
65716;BME280;63484;52.054;8.518;2023-06-14T02:11:22;100649.97;;;13.47;72.01
65716;BME280;63484;52.054;8.518;2023-06-14T02:16:24;100649.69;;;13.39;72.12
65716;BME280;63484;52.054;8.518;2023-06-14T02:21:28;100656.88;;;13.37;73.14
65716;BME280;63484;52.054;8.518;2023-06-14T02:26:31;100656.22;;;13.33;73.41
65716;BME280;63484;52.054;8.518;2023-06-14T02:31:33;100663.00;;;13.25;73.89
65716;BME280;63484;52.054;8.518;2023-06-14T02:36:35;100662.59;;;13.18;74.00
65716;BME280;63484;52.054;8.518;2023-06-14T02:41:43;100664.22;;;13.08;75.04
65716;BME280;63484;52.054;8.518;2023-06-14T02:46:45;100663.34;;;12.95;75.96
65716;BME280;63484;52.054;8.518;2023-06-14T02:51:47;100668.16;;;12.90;75.82
65716;BME280;63484;52.054;8.518;2023-06-14T02:56:52;100662.44;;;12.84;76.11
65716;BME280;63484;52.054;8.518;2023-06-14T03:01:54;100670.78;;;12.78;76.17
65716;BME280;63484;52.054;8.518;2023-06-14T03:06:56;100681.75;;;12.72;76.36
65716;BME280;63484;52.054;8.518;2023-06-14T03:12:00;100685.47;;;12.69;76.66
65716;BME280;63484;52.054;8.518;2023-06-14T03:17:03;100677.03;;;12.64;76.94
65716;BME280;63484;52.054;8.518;2023-06-14T03:22:08;100688.72;;;12.60;77.20
65716;BME280;63484;52.054;8.518;2023-06-14T03:27:14;100681.66;;;12.61;77.76
65716;BME280;63484;52.054;8.518;2023-06-14T03:32:19;100678.91;;;12.62;77.25
65716;BME280;63484;52.054;8.518;2023-06-14T03:37:21;100688.00;;;12.71;76.81
65716;BME280;63484;52.054;8.518;2023-06-14T03:42:24;100693.16;;;12.72;76.51
65716;BME280;63484;52.054;8.518;2023-06-14T03:47:27;100699.56;;;12.81;76.88
65716;BME280;63484;52.054;8.518;2023-06-14T03:52:31;100703.50;;;12.88;76.29
65716;BME280;63484;52.054;8.518;2023-06-14T03:57:35;100713.81;;;12.91;76.48
65716;BME280;63484;52.054;8.518;2023-06-14T04:02:41;100713.06;;;13.26;74.98
65716;BME280;63484;52.054;8.518;2023-06-14T04:07:47;100720.97;;;13.99;72.01
65716;BME280;63484;52.054;8.518;2023-06-14T04:12:50;100728.50;;;14.16;70.96
65716;BME280;63484;52.054;8.518;2023-06-14T04:17:52;100734.47;;;14.07;71.37
65716;BME280;63484;52.054;8.518;2023-06-14T04:23:10;100740.25;;;14.12;72.16
65716;BME280;63484;52.054;8.518;2023-06-14T04:28:14;100745.66;;;14.10;70.98
65716;BME280;63484;52.054;8.518;2023-06-14T04:33:17;100750.88;;;14.23;71.77
65716;BME280;63484;52.054;8.518;2023-06-14T04:38:19;100752.44;;;14.38;70.80
65716;BME280;63484;52.054;8.518;2023-06-14T04:43:28;100753.91;;;14.53;69.62
65716;BME280;63484;52.054;8.518;2023-06-14T04:48:31;100758.66;;;14.71;69.44
65716;BME280;63484;52.054;8.518;2023-06-14T04:53:36;100764.22;;;14.90;68.91
65716;BME280;63484;52.054;8.518;2023-06-14T04:58:39;100763.91;;;15.17;67.08
65716;BME280;63484;52.054;8.518;2023-06-14T05:03:41;100768.00;;;15.54;65.18
65716;BME280;63484;52.054;8.518;2023-06-14T05:08:45;100774.19;;;15.97;62.62
65716;BME280;63484;52.054;8.518;2023-06-14T05:13:49;100776.78;;;16.19;61.16
65716;BME280;63484;52.054;8.518;2023-06-14T05:18:51;100774.41;;;16.48;60.17
65716;BME280;63484;52.054;8.518;2023-06-14T05:23:52;100783.69;;;16.74;58.45
65716;BME280;63484;52.054;8.518;2023-06-14T05:28:55;100776.22;;;16.89;58.26
65716;BME280;63484;52.054;8.518;2023-06-14T05:33:57;100770.44;;;17.04;58.16
65716;BME280;63484;52.054;8.518;2023-06-14T05:39:00;100766.34;;;17.21;56.42
65716;BME280;63484;52.054;8.518;2023-06-14T05:44:04;100764.75;;;17.39;55.65
65716;BME280;63484;52.054;8.518;2023-06-14T05:49:06;100773.50;;;17.50;55.74
65716;BME280;63484;52.054;8.518;2023-06-14T05:54:08;100781.28;;;17.82;55.17
65716;BME280;63484;52.054;8.518;2023-06-14T05:59:13;100795.50;;;18.30;54.28
65716;BME280;63484;52.054;8.518;2023-06-14T06:04:15;100791.44;;;18.26;55.14
65716;BME280;63484;52.054;8.518;2023-06-14T06:09:17;100801.38;;;18.24;53.87
65716;BME280;63484;52.054;8.518;2023-06-14T06:14:20;100804.50;;;18.48;52.80
65716;BME280;63484;52.054;8.518;2023-06-14T06:19:24;100808.44;;;18.73;51.26
65716;BME280;63484;52.054;8.518;2023-06-14T06:24:29;100813.03;;;18.99;49.54
65716;BME280;63484;52.054;8.518;2023-06-14T06:29:32;100821.56;;;19.12;48.26
65716;BME280;63484;52.054;8.518;2023-06-14T06:34:33;100811.94;;;19.48;48.16
65716;BME280;63484;52.054;8.518;2023-06-14T06:39:38;100819.34;;;20.53;44.10
65716;BME280;63484;52.054;8.518;2023-06-14T06:44:41;100829.19;;;23.36;39.47
65716;BME280;63484;52.054;8.518;2023-06-14T06:49:43;100846.16;;;25.57;34.03
65716;BME280;63484;52.054;8.518;2023-06-14T06:54:46;100860.69;;;27.13;30.78
65716;BME280;63484;52.054;8.518;2023-06-14T06:59:50;100843.22;;;28.59;28.36
65716;BME280;63484;52.054;8.518;2023-06-14T07:04:52;100849.53;;;29.31;27.43
65716;BME280;63484;52.054;8.518;2023-06-14T07:09:54;100852.31;;;30.02;26.46
65716;BME280;63484;52.054;8.518;2023-06-14T07:14:59;100847.00;;;29.49;26.95
65716;BME280;63484;52.054;8.518;2023-06-14T07:20:03;100850.72;;;29.88;26.41
65716;BME280;63484;52.054;8.518;2023-06-14T07:25:13;100847.75;;;30.02;26.73
65716;BME280;63484;52.054;8.518;2023-06-14T07:30:16;100849.44;;;27.65;29.32
65716;BME280;63484;52.054;8.518;2023-06-14T07:35:18;100853.09;;;29.19;27.07
65716;BME280;63484;52.054;8.518;2023-06-14T07:40:22;100853.28;;;29.69;25.92
65716;BME280;63484;52.054;8.518;2023-06-14T07:45:25;100859.13;;;29.53;26.38
65716;BME280;63484;52.054;8.518;2023-06-14T07:50:27;100856.84;;;30.65;26.00
65716;BME280;63484;52.054;8.518;2023-06-14T07:55:31;100864.75;;;29.45;26.22
65716;BME280;63484;52.054;8.518;2023-06-14T08:00:37;100859.09;;;28.95;26.23
65716;BME280;63484;52.054;8.518;2023-06-14T08:05:39;100865.13;;;28.71;27.18
65716;BME280;63484;52.054;8.518;2023-06-14T08:10:40;100866.81;;;28.85;27.74
65716;BME280;63484;52.054;8.518;2023-06-14T08:15:43;100858.13;;;28.42;27.74
65716;BME280;63484;52.054;8.518;2023-06-14T08:20:45;100865.78;;;26.45;30.18
65716;BME280;63484;52.054;8.518;2023-06-14T08:25:49;100855.63;;;25.16;32.47
65716;BME280;63484;52.054;8.518;2023-06-14T08:30:52;100855.91;;;24.31;34.59
65716;BME280;63484;52.054;8.518;2023-06-14T08:35:54;100859.59;;;24.38;35.63
65716;BME280;63484;52.054;8.518;2023-06-14T08:40:57;100852.25;;;22.33;39.23
65716;BME280;63484;52.054;8.518;2023-06-14T08:46:03;100862.81;;;22.34;39.34
65716;BME280;63484;52.054;8.518;2023-06-14T08:51:05;100865.59;;;22.09;40.53
65716;BME280;63484;52.054;8.518;2023-06-14T08:56:08;100858.25;;;22.19;40.18
65716;BME280;63484;52.054;8.518;2023-06-14T09:01:14;100857.19;;;22.04;40.52
65716;BME280;63484;52.054;8.518;2023-06-14T09:06:17;100861.81;;;21.85;41.33
65716;BME280;63484;52.054;8.518;2023-06-14T09:11:25;100859.53;;;21.98;42.16
65716;BME280;63484;52.054;8.518;2023-06-14T09:16:32;100867.88;;;21.95;42.18
65716;BME280;63484;52.054;8.518;2023-06-14T09:21:34;100865.66;;;21.83;41.17
65716;BME280;63484;52.054;8.518;2023-06-14T09:26:38;100872.59;;;22.02;40.50
65716;BME280;63484;52.054;8.518;2023-06-14T09:31:40;100873.47;;;21.51;42.46
65716;BME280;63484;52.054;8.518;2023-06-14T09:36:42;100876.84;;;21.78;41.56
65716;BME280;63484;52.054;8.518;2023-06-14T09:41:44;100865.94;;;22.14;41.15
65716;BME280;63484;52.054;8.518;2023-06-14T09:46:48;100882.22;;;22.94;39.98
65716;BME280;63484;52.054;8.518;2023-06-14T09:51:50;100880.53;;;22.93;39.74
65716;BME280;63484;52.054;8.518;2023-06-14T09:56:54;100875.19;;;22.77;38.18
65716;BME280;63484;52.054;8.518;2023-06-14T10:02:06;100882.97;;;22.46;39.79
65716;BME280;63484;52.054;8.518;2023-06-14T10:07:10;100881.41;;;23.09;38.90
65716;BME280;63484;52.054;8.518;2023-06-14T10:12:12;100878.19;;;22.98;38.60
65716;BME280;63484;52.054;8.518;2023-06-14T10:17:26;100865.44;;;22.68;38.98
65716;BME280;63484;52.054;8.518;2023-06-14T10:22:33;100862.94;;;22.82;39.28
65716;BME280;63484;52.054;8.518;2023-06-14T10:27:35;100858.72;;;23.36;38.90
65716;BME280;63484;52.054;8.518;2023-06-14T10:33:03;100874.19;;;23.02;37.45
65716;BME280;63484;52.054;8.518;2023-06-14T10:38:09;100863.13;;;22.89;38.96
65716;BME280;63484;52.054;8.518;2023-06-14T10:43:23;100864.78;;;23.22;39.23
65716;BME280;63484;52.054;8.518;2023-06-14T10:48:31;100862.94;;;23.22;39.25
65716;BME280;63484;52.054;8.518;2023-06-14T10:53:39;100865.13;;;22.71;39.95
65716;BME280;63484;52.054;8.518;2023-06-14T10:58:41;100848.59;;;22.26;41.18
65716;BME280;63484;52.054;8.518;2023-06-14T11:03:51;100842.16;;;22.11;41.10
65716;BME280;63484;52.054;8.518;2023-06-14T11:09:27;100855.81;;;22.49;41.44
65716;BME280;63484;52.054;8.518;2023-06-14T11:14:36;100847.34;;;22.78;38.52
65716;BME280;63484;52.054;8.518;2023-06-14T11:19:39;100849.03;;;22.87;37.59
65716;BME280;63484;52.054;8.518;2023-06-14T11:24:42;100856.22;;;23.10;37.47
65716;BME280;63484;52.054;8.518;2023-06-14T11:29:48;100847.69;;;23.31;36.92
65716;BME280;63484;52.054;8.518;2023-06-14T11:34:51;100830.53;;;23.48;37.14
65716;BME280;63484;52.054;8.518;2023-06-14T11:39:55;100826.94;;;23.64;36.13
65716;BME280;63484;52.054;8.518;2023-06-14T11:44:57;100820.50;;;23.34;36.45
65716;BME280;63484;52.054;8.518;2023-06-14T11:50:00;100830.84;;;23.53;38.02
65716;BME280;63484;52.054;8.518;2023-06-14T11:55:06;100829.19;;;23.52;37.36
65716;BME280;63484;52.054;8.518;2023-06-14T12:00:08;100827.22;;;23.06;38.08
65716;BME280;63484;52.054;8.518;2023-06-14T12:05:13;100828.41;;;23.27;38.27
65716;BME280;63484;52.054;8.518;2023-06-14T12:10:15;100825.31;;;23.93;36.99
65716;BME280;63484;52.054;8.518;2023-06-14T12:15:20;100821.34;;;23.89;37.17
65716;BME280;63484;52.054;8.518;2023-06-14T12:20:28;100825.47;;;23.61;37.05
65716;BME280;63484;52.054;8.518;2023-06-14T12:25:32;100812.47;;;24.64;37.26
65716;BME280;63484;52.054;8.518;2023-06-14T12:30:38;100809.75;;;24.73;36.13
65716;BME280;63484;52.054;8.518;2023-06-14T12:35:41;100811.75;;;24.25;36.91
65716;BME280;63484;52.054;8.518;2023-06-14T12:40:42;100815.94;;;24.28;35.41
65716;BME280;63484;52.054;8.518;2023-06-14T12:45:44;100813.94;;;23.83;36.55
65716;BME280;63484;52.054;8.518;2023-06-14T12:50:48;100819.03;;;24.17;35.55
65716;BME280;63484;52.054;8.518;2023-06-14T12:55:50;100813.81;;;24.46;36.38
65716;BME280;63484;52.054;8.518;2023-06-14T13:00:52;100816.66;;;24.75;35.21
65716;BME280;63484;52.054;8.518;2023-06-14T13:05:55;100816.44;;;24.54;34.57
65716;BME280;63484;52.054;8.518;2023-06-14T13:10:59;100817.16;;;24.17;36.15
65716;BME280;63484;52.054;8.518;2023-06-14T13:16:01;100820.91;;;24.61;35.98
65716;BME280;63484;52.054;8.518;2023-06-14T13:21:04;100822.25;;;25.25;34.76
65716;BME280;63484;52.054;8.518;2023-06-14T13:26:06;100812.66;;;25.23;34.36
65716;BME280;63484;52.054;8.518;2023-06-14T13:31:08;100818.84;;;25.46;33.97
65716;BME280;63484;52.054;8.518;2023-06-14T13:36:11;100805.19;;;24.96;35.60
65716;BME280;63484;52.054;8.518;2023-06-14T13:41:15;100823.53;;;24.24;36.93
65716;BME280;63484;52.054;8.518;2023-06-14T13:46:16;100817.53;;;24.68;36.41
65716;BME280;63484;52.054;8.518;2023-06-14T13:51:19;100811.88;;;25.37;34.07
65716;BME280;63484;52.054;8.518;2023-06-14T13:56:21;100806.41;;;25.74;33.75
65716;BME280;63484;52.054;8.518;2023-06-14T14:01:24;100810.69;;;25.17;34.15
65716;BME280;63484;52.054;8.518;2023-06-14T14:06:28;100809.25;;;24.92;35.83
65716;BME280;63484;52.054;8.518;2023-06-14T14:11:30;100809.97;;;24.86;35.84
65716;BME280;63484;52.054;8.518;2023-06-14T14:16:33;100802.69;;;24.49;36.76
65716;BME280;63484;52.054;8.518;2023-06-14T14:21:36;100800.81;;;24.49;37.28
65716;BME280;63484;52.054;8.518;2023-06-14T14:26:38;100804.66;;;24.55;37.57
65716;BME280;63484;52.054;8.518;2023-06-14T14:31:40;100802.47;;;24.81;36.92
65716;BME280;63484;52.054;8.518;2023-06-14T14:36:43;100802.03;;;24.70;36.67
65716;BME280;63484;52.054;8.518;2023-06-14T14:41:47;100808.69;;;24.82;35.50
65716;BME280;63484;52.054;8.518;2023-06-14T14:46:48;100802.09;;;24.61;35.49
65716;BME280;63484;52.054;8.518;2023-06-14T14:51:54;100789.66;;;24.15;36.67
65716;BME280;63484;52.054;8.518;2023-06-14T14:56:56;100799.06;;;24.11;36.77
65716;BME280;63484;52.054;8.518;2023-06-14T15:01:58;100802.75;;;24.63;36.20
65716;BME280;63484;52.054;8.518;2023-06-14T15:07:01;100793.34;;;24.59;36.49
65716;BME280;63484;52.054;8.518;2023-06-14T15:12:03;100792.47;;;24.90;35.58
65716;BME280;63484;52.054;8.518;2023-06-14T15:17:07;100793.88;;;25.15;36.31
65716;BME280;63484;52.054;8.518;2023-06-14T15:22:10;100790.97;;;24.87;35.75
65716;BME280;63484;52.054;8.518;2023-06-14T15:27:12;100797.66;;;24.91;36.14
65716;BME280;63484;52.054;8.518;2023-06-14T15:32:14;100788.44;;;24.86;36.53
65716;BME280;63484;52.054;8.518;2023-06-14T15:37:17;100792.66;;;24.88;35.62
65716;BME280;63484;52.054;8.518;2023-06-14T15:42:18;100791.22;;;24.78;36.80
65716;BME280;63484;52.054;8.518;2023-06-14T15:47:20;100786.88;;;24.77;37.13
65716;BME280;63484;52.054;8.518;2023-06-14T15:52:23;100787.13;;;25.04;37.41
65716;BME280;63484;52.054;8.518;2023-06-14T15:57:25;100783.88;;;25.09;35.72
65716;BME280;63484;52.054;8.518;2023-06-14T16:02:27;100783.03;;;25.08;35.99
65716;BME280;63484;52.054;8.518;2023-06-14T16:07:30;100774.50;;;25.34;36.60
65716;BME280;63484;52.054;8.518;2023-06-14T16:12:31;100783.06;;;24.86;36.66
65716;BME280;63484;52.054;8.518;2023-06-14T16:17:33;100770.53;;;24.78;37.94
65716;BME280;63484;52.054;8.518;2023-06-14T16:22:36;100763.78;;;24.97;37.78
65716;BME280;63484;52.054;8.518;2023-06-14T16:27:37;100777.31;;;24.89;38.87
65716;BME280;63484;52.054;8.518;2023-06-14T16:32:39;100774.34;;;24.84;38.40
65716;BME280;63484;52.054;8.518;2023-06-14T16:37:42;100773.53;;;24.60;36.98
65716;BME280;63484;52.054;8.518;2023-06-14T16:42:44;100776.50;;;24.66;37.98
65716;BME280;63484;52.054;8.518;2023-06-14T16:47:48;100766.34;;;24.76;37.02
65716;BME280;63484;52.054;8.518;2023-06-14T16:52:51;100769.94;;;24.68;36.62
65716;BME280;63484;52.054;8.518;2023-06-14T16:57:52;100776.91;;;24.54;37.39
65716;BME280;63484;52.054;8.518;2023-06-14T17:02:54;100778.00;;;24.45;38.19
65716;BME280;63484;52.054;8.518;2023-06-14T17:08:00;100777.47;;;24.27;38.31
65716;BME280;63484;52.054;8.518;2023-06-14T17:13:02;100777.81;;;24.24;38.43
65716;BME280;63484;52.054;8.518;2023-06-14T17:18:04;100782.22;;;24.17;38.35
65716;BME280;63484;52.054;8.518;2023-06-14T17:23:07;100784.47;;;24.06;38.62
65716;BME280;63484;52.054;8.518;2023-06-14T17:28:09;100785.25;;;23.84;39.45
65716;BME280;63484;52.054;8.518;2023-06-14T17:33:10;100794.53;;;23.65;38.92
65716;BME280;63484;52.054;8.518;2023-06-14T17:38:14;100799.25;;;23.71;38.52
65716;BME280;63484;52.054;8.518;2023-06-14T17:43:16;100791.22;;;23.63;39.16
65716;BME280;63484;52.054;8.518;2023-06-14T17:48:18;100789.56;;;23.54;39.23
65716;BME280;63484;52.054;8.518;2023-06-14T17:53:21;100790.34;;;23.71;39.40
65716;BME280;63484;52.054;8.518;2023-06-14T17:58:22;100789.72;;;23.53;40.46
65716;BME280;63484;52.054;8.518;2023-06-14T18:03:24;100797.63;;;23.46;39.82
65716;BME280;63484;52.054;8.518;2023-06-14T18:08:27;100794.00;;;23.39;39.83
65716;BME280;63484;52.054;8.518;2023-06-14T18:13:29;100800.88;;;23.34;39.97
65716;BME280;63484;52.054;8.518;2023-06-14T18:18:32;100803.72;;;23.24;40.14
65716;BME280;63484;52.054;8.518;2023-06-14T18:23:35;100806.41;;;23.16;39.71
65716;BME280;63484;52.054;8.518;2023-06-14T18:28:39;100807.59;;;23.05;40.15
65716;BME280;63484;52.054;8.518;2023-06-14T18:33:43;100811.13;;;22.90;41.26
65716;BME280;63484;52.054;8.518;2023-06-14T18:38:49;100817.50;;;22.73;41.64
65716;BME280;63484;52.054;8.518;2023-06-14T18:43:52;100815.47;;;22.59;41.52
65716;BME280;63484;52.054;8.518;2023-06-14T18:48:56;100817.44;;;22.49;40.96
65716;BME280;63484;52.054;8.518;2023-06-14T18:53:59;100816.78;;;22.39;40.97
65716;BME280;63484;52.054;8.518;2023-06-14T18:59:02;100818.25;;;22.25;42.33
65716;BME280;63484;52.054;8.518;2023-06-14T19:04:04;100821.72;;;22.10;42.66
65716;BME280;63484;52.054;8.518;2023-06-14T19:09:07;100814.47;;;21.94;43.32
65716;BME280;63484;52.054;8.518;2023-06-14T19:14:09;100822.28;;;21.79;43.05
65716;BME280;63484;52.054;8.518;2023-06-14T19:19:13;100829.56;;;21.69;43.60
65716;BME280;63484;52.054;8.518;2023-06-14T19:24:16;100833.19;;;21.52;44.17
65716;BME280;63484;52.054;8.518;2023-06-14T19:29:21;100834.09;;;21.43;43.68
65716;BME280;63484;52.054;8.518;2023-06-14T19:34:22;100828.97;;;21.24;45.49
65716;BME280;63484;52.054;8.518;2023-06-14T19:39:28;100834.84;;;21.02;46.10
65716;BME280;63484;52.054;8.518;2023-06-14T19:44:29;100841.81;;;20.78;46.97
65716;BME280;63484;52.054;8.518;2023-06-14T19:49:31;100843.94;;;20.56;47.92
65716;BME280;63484;52.054;8.518;2023-06-14T19:54:34;100851.19;;;20.46;47.34
65716;BME280;63484;52.054;8.518;2023-06-14T19:59:36;100853.47;;;20.41;47.78
65716;BME280;63484;52.054;8.518;2023-06-14T20:04:37;100860.56;;;20.33;48.41
65716;BME280;63484;52.054;8.518;2023-06-14T20:09:42;100854.59;;;20.12;49.59
65716;BME280;63484;52.054;8.518;2023-06-14T20:14:44;100863.03;;;19.90;50.10
65716;BME280;63484;52.054;8.518;2023-06-14T20:19:46;100871.16;;;19.61;52.33
65716;BME280;63484;52.054;8.518;2023-06-14T20:24:50;100884.00;;;19.39;53.64
65716;BME280;63484;52.054;8.518;2023-06-14T20:29:52;100879.94;;;19.15;55.43
65716;BME280;63484;52.054;8.518;2023-06-14T20:34:54;100877.44;;;18.95;56.65
65716;BME280;63484;52.054;8.518;2023-06-14T20:39:59;100877.13;;;18.79;56.97
65716;BME280;63484;52.054;8.518;2023-06-14T20:45:07;100881.22;;;18.64;57.98
65716;BME280;63484;52.054;8.518;2023-06-14T20:50:09;100879.94;;;18.49;58.56
65716;BME280;63484;52.054;8.518;2023-06-14T20:55:13;100884.50;;;18.28;60.28
65716;BME280;63484;52.054;8.518;2023-06-14T21:00:16;100878.81;;;18.02;61.38
65716;BME280;63484;52.054;8.518;2023-06-14T21:05:17;100882.50;;;17.80;61.10
65716;BME280;63484;52.054;8.518;2023-06-14T21:10:21;100887.63;;;17.63;62.55
65716;BME280;63484;52.054;8.518;2023-06-14T21:15:23;100884.91;;;17.53;62.76
65716;BME280;63484;52.054;8.518;2023-06-14T21:20:25;100877.13;;;17.41;63.65
65716;BME280;63484;52.054;8.518;2023-06-14T21:25:28;100882.47;;;17.30;64.38
65716;BME280;63484;52.054;8.518;2023-06-14T21:30:33;100877.25;;;17.19;65.22
65716;BME280;63484;52.054;8.518;2023-06-14T21:35:35;100879.25;;;17.06;66.64
65716;BME280;63484;52.054;8.518;2023-06-14T21:46:29;100886.22;;;16.86;67.16
65716;BME280;63484;52.054;8.518;2023-06-14T21:51:31;100882.66;;;16.76;67.92
65716;BME280;63484;52.054;8.518;2023-06-14T21:56:33;100887.19;;;16.65;68.74
65716;BME280;63484;52.054;8.518;2023-06-14T22:01:36;100884.19;;;16.58;68.92
65716;BME280;63484;52.054;8.518;2023-06-14T22:06:37;100884.09;;;16.48;69.80
65716;BME280;63484;52.054;8.518;2023-06-14T22:11:44;100883.94;;;16.39;69.75
65716;BME280;63484;52.054;8.518;2023-06-14T22:16:47;100883.72;;;16.31;70.21
65716;BME280;63484;52.054;8.518;2023-06-14T22:21:51;100892.19;;;16.25;71.16
65716;BME280;63484;52.054;8.518;2023-06-14T22:26:53;100896.19;;;16.19;71.21
65716;BME280;63484;52.054;8.518;2023-06-14T22:31:57;100901.59;;;16.18;71.40
65716;BME280;63484;52.054;8.518;2023-06-14T22:36:59;100916.69;;;16.17;71.50
65716;BME280;63484;52.054;8.518;2023-06-14T22:42:06;100913.81;;;16.09;72.71
65716;BME280;63484;52.054;8.518;2023-06-14T22:47:09;100911.38;;;15.95;73.17
65716;BME280;63484;52.054;8.518;2023-06-14T22:52:13;100915.84;;;15.84;73.43
65716;BME280;63484;52.054;8.518;2023-06-14T22:57:16;100902.94;;;15.68;74.27
65716;BME280;63484;52.054;8.518;2023-06-14T23:02:22;100912.09;;;15.53;75.13
65716;BME280;63484;52.054;8.518;2023-06-14T23:07:26;100912.94;;;15.43;75.22
65716;BME280;63484;52.054;8.518;2023-06-14T23:12:29;100906.97;;;15.28;75.60
65716;BME280;63484;52.054;8.518;2023-06-14T23:17:32;100909.97;;;15.23;75.25
65716;BME280;63484;52.054;8.518;2023-06-14T23:22:36;100909.81;;;15.14;75.28
65716;BME280;63484;52.054;8.518;2023-06-14T23:27:43;100903.16;;;15.08;75.27
65716;BME280;63484;52.054;8.518;2023-06-14T23:32:47;100901.81;;;15.03;75.85
65716;BME280;63484;52.054;8.518;2023-06-14T23:37:49;100900.59;;;14.96;75.13
65716;BME280;63484;52.054;8.518;2023-06-14T23:42:51;100904.31;;;14.93;75.36
65716;BME280;63484;52.054;8.518;2023-06-14T23:47:54;100906.69;;;14.85;76.31
65716;BME280;63484;52.054;8.518;2023-06-14T23:52:56;100902.91;;;14.77;77.42
65716;BME280;63484;52.054;8.518;2023-06-14T23:57:59;100904.47;;;14.68;77.47
